Time;durP1;ratioP1;P1;durP2;ratioP2;P2;SDS_P1;SDS_P2;PMS_P1;PMS_P2;Temp;Humidity;BMP_temperature;BMP_pressure;BME280_temperature;BME280_humidity;BME280_pressure;Samples;Min_cycle;Max_cycle;Signal;HPM_P1;HPM_P2
2021/11/30 00:01:37;;;;;;;5.63;3.93;;;3.10;99.90;;;;;;5090999;28;20535;-69
2021/11/30 00:04:04;;;;;;;7.00;4.37;;;3.10;99.90;;;;;;5091160;28;20784;-69
2021/11/30 00:06:33;;;;;;;5.93;4.67;;;3.20;99.90;;;;;;5090702;28;20939;-68
2021/11/30 00:09:10;;;;;;;8.77;4.20;;;3.30;99.90;;;;;;5091294;28;21023;-68
2021/11/30 00:11:36;;;;;;;4.50;3.80;;;3.30;99.90;;;;;;5091519;28;20441;-68
2021/11/30 00:14:04;;;;;;;5.00;4.17;;;3.30;99.90;;;;;;5092240;28;20436;-69
2021/11/30 00:16:31;;;;;;;5.07;4.33;;;3.30;99.90;;;;;;5091716;28;20523;-68
2021/11/30 00:18:59;;;;;;;5.80;3.90;;;3.20;99.90;;;;;;5092162;28;20981;-69
2021/11/30 00:21:26;;;;;;;8.00;4.17;;;3.10;99.90;;;;;;5093148;28;20437;-69
2021/11/30 00:23:53;;;;;;;6.50;3.70;;;3.10;99.90;;;;;;5112224;28;20528;-69
2021/11/30 00:26:20;;;;;;;5.40;3.70;;;3.00;99.90;;;;;;5107958;28;20519;-69
2021/11/30 00:28:47;;;;;;;8.43;4.90;;;3.00;99.90;;;;;;5091913;28;20480;-70
2021/11/30 00:31:14;;;;;;;5.13;3.87;;;3.00;99.90;;;;;;5091617;28;20441;-68
2021/11/30 00:33:42;;;;;;;5.87;4.47;;;3.00;99.90;;;;;;5091579;28;20494;-68
2021/11/30 00:36:10;;;;;;;4.97;3.93;;;2.90;99.90;;;;;;5091751;28;20536;-67
2021/11/30 00:38:37;;;;;;;6.10;4.40;;;2.70;99.90;;;;;;5091080;28;20985;-67
2021/11/30 00:41:04;;;;;;;4.77;4.37;;;2.70;99.90;;;;;;5091781;28;20531;-67
2021/11/30 00:43:33;;;;;;;5.63;4.10;;;2.80;99.90;;;;;;5090946;28;20447;-67
2021/11/30 00:46:09;;;;;;;4.00;3.10;;;2.80;99.90;;;;;;5091694;28;20803;-67
2021/11/30 00:48:36;;;;;;;8.40;4.00;;;2.70;99.90;;;;;;5091096;28;20471;-68
2021/11/30 00:51:07;;;;;;;7.53;3.50;;;2.80;99.90;;;;;;5091567;28;20436;-68
2021/11/30 00:53:36;;;;;;;6.40;3.90;;;2.80;99.90;;;;;;5090522;28;20933;-67
2021/11/30 00:56:03;;;;;;;4.37;3.70;;;2.80;99.90;;;;;;5091072;28;20519;-70
2021/11/30 00:58:31;;;;;;;4.00;3.60;;;2.90;99.90;;;;;;5091000;28;20951;-69
2021/11/30 01:00:57;;;;;;;4.63;3.73;;;2.90;99.90;;;;;;5091370;28;20780;-67
2021/11/30 01:03:24;;;;;;;10.10;4.50;;;2.80;99.90;;;;;;5090750;28;20943;-68
2021/11/30 01:05:52;;;;;;;3.93;3.10;;;2.90;99.90;;;;;;5090932;28;20443;-68
2021/11/30 01:08:19;;;;;;;4.70;2.73;;;2.90;99.90;;;;;;5089421;28;20831;-67
2021/11/30 01:10:47;;;;;;;6.80;3.30;;;3.00;99.90;;;;;;5091325;28;20500;-67
2021/11/30 01:13:15;;;;;;;4.47;3.43;;;3.00;99.90;;;;;;5091226;28;20528;-67
2021/11/30 01:15:41;;;;;;;3.40;3.10;;;3.10;99.90;;;;;;5090612;28;20502;-67
2021/11/30 01:18:09;;;;;;;8.07;3.57;;;3.10;99.90;;;;;;5090750;28;20444;-67
2021/11/30 01:20:36;;;;;;;3.93;2.67;;;3.10;99.90;;;;;;5090687;28;20516;-67
2021/11/30 01:23:04;;;;;;;4.10;3.13;;;3.00;99.90;;;;;;5091220;28;20437;-67
2021/11/30 01:25:32;;;;;;;3.40;2.60;;;3.10;99.90;;;;;;5090403;28;20441;-67
2021/11/30 01:28:00;;;;;;;4.00;3.33;;;3.10;99.90;;;;;;5090703;28;20999;-67
2021/11/30 01:30:27;;;;;;;3.73;3.20;;;3.10;99.90;;;;;;5090372;28;20441;-67
2021/11/30 01:32:55;;;;;;;4.23;2.60;;;3.30;99.90;;;;;;5090832;28;20460;-67
2021/11/30 01:35:22;;;;;;;4.30;2.57;;;3.20;99.90;;;;;;5090556;28;20575;-66
2021/11/30 01:37:49;;;;;;;3.27;2.97;;;3.20;99.90;;;;;;5090520;28;20531;-67
2021/11/30 01:40:19;;;;;;;3.20;2.60;;;3.30;99.90;;;;;;5090894;28;20593;-67
2021/11/30 01:42:47;;;;;;;3.87;2.97;;;3.30;99.90;;;;;;5091428;28;20479;-67
2021/11/30 01:45:28;;;;;;;4.53;2.83;;;3.30;99.90;;;;;;5091288;28;20437;-67
2021/11/30 01:49:07;;;;;;;3.13;2.70;;;3.20;99.90;;;;;;5090801;28;20465;-67
2021/11/30 01:50:47;;;;;;;5.70;2.37;;;3.20;99.90;;;;;;5090679;28;20957;-67
2021/11/30 01:53:14;;;;;;;3.40;3.10;;;3.20;99.90;;;;;;5091156;28;20857;-67
2021/11/30 01:55:43;;;;;;;3.50;2.60;;;3.20;99.90;;;;;;5090345;28;20719;-67
2021/11/30 01:58:10;;;;;;;2.73;2.53;;;3.20;99.90;;;;;;5090527;28;20539;-67
2021/11/30 02:00:39;;;;;;;4.80;3.00;;;3.30;99.90;;;;;;5090135;28;20441;-67
2021/11/30 02:03:06;;;;;;;2.77;2.23;;;3.30;94.10;;;;;;5091034;28;20518;-67
2021/11/30 02:05:34;;;;;;;4.07;2.33;;;3.30;64.20;;;;;;5089963;28;20445;-67
2021/11/30 02:08:03;;;;;;;2.40;2.20;;;3.30;50.70;;;;;;5090221;28;20984;-67
2021/11/30 02:10:30;;;;;;;9.33;2.80;;;3.20;1.00;;;;;;5089946;28;20825;-67
2021/11/30 02:12:58;;;;;;;3.40;2.30;;;3.30;12.50;;;;;;5091076;28;20781;-67
2021/11/30 02:15:26;;;;;;;3.40;2.90;;;3.30;1.00;;;;;;5089900;28;20445;-67
2021/11/30 02:17:56;;;;;;;4.10;2.33;;;3.40;1.00;;;;;;5090586;28;20482;-67
2021/11/30 02:20:25;;;;;;;3.73;2.27;;;3.40;1.00;;;;;;5093770;28;20431;-67
2021/11/30 02:22:54;;;;;;;2.57;2.20;;;3.30;1.00;;;;;;5094373;28;20491;-67
2021/11/30 02:25:21;;;;;;;2.53;1.93;;;3.30;1.00;;;;;;5093927;28;20494;-67
2021/11/30 02:27:49;;;;;;;3.70;2.27;;;3.30;1.00;;;;;;5094336;28;20890;-67
2021/11/30 02:30:16;;;;;;;3.37;2.87;;;3.50;1.00;;;;;;5094248;28;20476;-67
2021/11/30 02:32:43;;;;;;;2.60;2.07;;;3.40;1.00;;;;;;5093504;28;20869;-67
2021/11/30 02:35:11;;;;;;;2.37;2.10;;;3.30;1.00;;;;;;5094431;28;20558;-67
2021/11/30 02:37:44;;;;;;;4.43;2.37;;;3.30;1.00;;;;;;5093540;28;20541;-67
2021/11/30 02:40:12;;;;;;;2.77;2.20;;;3.30;99.90;;;;;;5094018;28;20837;-67
2021/11/30 02:42:39;;;;;;;4.87;1.73;;;3.30;1.00;;;;;;5093649;28;20811;-67
2021/11/30 02:45:06;;;;;;;2.40;1.93;;;3.30;99.90;;;;;;5093632;28;20543;-67
2021/11/30 02:47:33;;;;;;;2.40;2.00;;;3.30;99.90;;;;;;5093306;28;20441;-67
2021/11/30 02:50:00;;;;;;;3.47;1.57;;;3.30;99.90;;;;;;5093594;28;20531;-67
2021/11/30 02:52:29;;;;;;;6.60;2.17;;;3.30;99.90;;;;;;5092558;28;20836;-66
2021/11/30 02:54:57;;;;;;;2.00;1.70;;;3.30;99.90;;;;;;5093969;28;20475;-67
2021/11/30 02:57:24;;;;;;;2.50;1.90;;;3.20;99.90;;;;;;5093100;28;20437;-67
2021/11/30 02:59:53;;;;;;;2.53;2.20;;;3.20;99.90;;;;;;5093507;28;20472;-66
2021/11/30 03:02:23;;;;;;;2.00;1.70;;;3.10;99.90;;;;;;5093163;28;20483;-66
2021/11/30 03:04:52;;;;;;;3.40;1.83;;;3.20;99.90;;;;;;5093495;28;20507;-66
2021/11/30 03:07:21;;;;;;;4.43;2.03;;;3.20;99.90;;;;;;5093330;28;20531;-66
2021/11/30 03:09:48;;;;;;;1.90;1.50;;;3.20;99.90;;;;;;5092847;28;20441;-67
2021/11/30 03:12:17;;;;;;;3.13;2.20;;;3.20;99.90;;;;;;5083790;28;20502;-67
2021/11/30 03:14:44;;;;;;;3.47;1.77;;;3.00;99.90;;;;;;5092718;28;20933;-66
2021/11/30 03:17:12;;;;;;;2.77;2.20;;;3.00;99.90;;;;;;5093178;28;20437;-66
2021/11/30 03:19:39;;;;;;;3.50;1.70;;;3.10;99.90;;;;;;5092568;28;20446;-66
2021/11/30 03:22:07;;;;;;;1.60;1.50;;;3.10;99.90;;;;;;5092912;28;21996;-66
2021/11/30 03:24:34;;;;;;;4.33;1.70;;;3.10;1.00;;;;;;5092833;28;20881;-67
2021/11/30 03:27:01;;;;;;;3.03;1.40;;;3.10;1.00;;;;;;5093017;28;20524;-66
2021/11/30 03:29:30;;;;;;;4.37;1.97;;;3.00;1.00;;;;;;5092189;28;20483;-66
2021/11/30 03:32:04;;;;;;;2.73;1.83;;;3.00;50.70;;;;;;5092229;28;20536;-67
2021/11/30 03:34:30;;;;;;;1.90;1.70;;;3.00;13.30;;;;;;5092283;28;20811;-66
2021/11/30 03:36:57;;;;;;;1.73;1.60;;;3.10;28.50;;;;;;5092731;28;20508;-67
2021/11/30 03:39:26;;;;;;;1.83;1.40;;;3.10;1.00;;;;;;5093040;28;20498;-66
2021/11/30 03:41:54;;;;;;;2.40;1.53;;;3.00;1.00;;;;;;5096499;28;20456;-66
2021/11/30 03:44:23;;;;;;;2.80;1.73;;;3.10;1.00;;;;;;5100081;27;20804;-66
2021/11/30 03:46:51;;;;;;;2.90;1.93;;;3.10;1.00;;;;;;5091791;28;20444;-66
2021/11/30 03:49:19;;;;;;;2.00;1.60;;;3.20;99.90;;;;;;5092202;28;20480;-66
2021/11/30 03:51:47;;;;;;;2.90;1.37;;;3.20;99.90;;;;;;5091839;28;20444;-67
2021/11/30 03:54:15;;;;;;;3.90;1.80;;;3.10;99.90;;;;;;5092632;28;20449;-67
2021/11/30 03:56:42;;;;;;;2.13;1.70;;;3.20;99.90;;;;;;5091813;28;20540;-66
2021/11/30 03:59:10;;;;;;;1.80;1.70;;;3.20;99.90;;;;;;5072497;28;20867;-66
2021/11/30 04:01:37;;;;;;;1.63;1.43;;;3.20;99.90;;;;;;5090185;28;20440;-67
2021/11/30 04:04:11;;;;;;;2.27;1.50;;;3.10;1.00;;;;;;5092193;28;20535;-66
2021/11/30 04:06:38;;;;;;;1.90;1.73;;;3.30;1.00;;;;;;5091829;28;20444;-67
2021/11/30 04:09:05;;;;;;;4.20;2.27;;;3.30;99.90;;;;;;5091947;28;21007;-66
2021/11/30 04:11:33;;;;;;;2.07;1.87;;;3.20;99.90;;;;;;5091436;28;20442;-67
2021/11/30 04:14:00;;;;;;;1.50;1.33;;;3.40;99.90;;;;;;5087261;28;20458;-66
2021/11/30 04:16:27;;;;;;;2.50;1.77;;;3.20;99.90;;;;;;5092434;28;20480;-67
2021/11/30 04:18:53;;;;;;;2.20;2.00;;;3.20;1.00;;;;;;5090343;28;20436;-67
2021/11/30 04:21:23;;;;;;;3.23;1.63;;;3.40;1.00;;;;;;5091985;28;20445;-66
2021/11/30 04:23:49;;;;;;;1.47;1.37;;;3.50;99.90;;;;;;5091653;28;20706;-67
2021/11/30 04:26:16;;;;;;;5.00;1.90;;;3.20;99.90;;;;;;5091656;28;20484;-67
2021/11/30 04:28:44;;;;;;;2.73;1.53;;;3.20;1.00;;;;;;5091001;28;20555;-67
2021/11/30 04:31:11;;;;;;;4.60;2.03;;;3.20;1.00;;;;;;5091354;28;20448;-67
2021/11/30 04:33:38;;;;;;;3.37;1.97;;;3.10;1.00;;;;;;5090229;28;20472;-67
2021/11/30 04:36:07;;;;;;;3.00;1.50;;;3.10;1.00;;;;;;5091857;28;20528;-67
2021/11/30 04:38:35;;;;;;;6.23;2.57;;;3.00;1.00;;;;;;5091031;28;20468;-66
2021/11/30 04:41:03;;;;;;;4.03;1.63;;;2.90;1.00;;;;;;5091600;28;20524;-67
2021/11/30 04:43:34;;;;;;;2.10;1.70;;;2.90;1.00;;;;;;5091724;28;20811;-67
2021/11/30 04:46:05;;;;;;;2.50;1.77;;;2.90;1.00;;;;;;5091507;28;20437;-67
2021/11/30 04:48:34;;;;;;;3.60;1.67;;;3.00;1.00;;;;;;5090311;28;20475;-67
2021/11/30 04:51:02;;;;;;;1.93;1.47;;;3.00;1.00;;;;;;5091187;28;20440;-67
2021/11/30 04:53:31;;;;;;;2.90;1.90;;;3.00;1.00;;;;;;5091888;28;20456;-67
2021/11/30 04:56:00;;;;;;;2.30;1.43;;;3.00;1.00;;;;;;5091523;28;20443;-67
2021/11/30 04:58:27;;;;;;;4.03;2.07;;;2.90;1.00;;;;;;5090646;28;20451;-67
2021/11/30 05:00:54;;;;;;;5.03;2.30;;;3.00;1.00;;;;;;5090533;28;20529;-67
2021/11/30 05:03:21;;;;;;;3.10;1.70;;;3.00;1.00;;;;;;5091295;28;20539;-67
2021/11/30 05:05:48;;;;;;;2.80;1.60;;;2.90;1.00;;;;;;5090454;28;20451;-67
2021/11/30 05:08:15;;;;;;;2.97;1.30;;;2.90;1.00;;;;;;5090975;28;20515;-67
2021/11/30 05:10:42;;;;;;;2.40;1.80;;;3.00;1.00;;;;;;5090232;28;20485;-67
2021/11/30 05:13:10;;;;;;;3.20;2.10;;;3.00;1.00;;;;;;5090991;28;20539;-67
2021/11/30 05:15:37;;;;;;;2.40;2.03;;;2.90;1.00;;;;;;5091635;28;20541;-67
2021/11/30 05:18:04;;;;;;;2.57;1.90;;;2.90;1.00;;;;;;5098355;28;20449;-66
2021/11/30 05:20:32;;;;;;;2.97;2.67;;;2.90;1.00;;;;;;5090862;28;20448;-66
2021/11/30 05:22:59;;;;;;;2.90;2.00;;;2.90;1.00;;;;;;5091009;28;20476;-66
2021/11/30 05:25:33;;;;;;;2.30;1.77;;;2.80;99.90;;;;;;5090678;28;20933;-67
2021/11/30 05:28:00;;;;;;;2.70;1.97;;;2.70;99.90;;;;;;5091534;28;20433;-66
2021/11/30 05:30:35;;;;;;;3.90;2.10;;;2.80;99.90;;;;;;5093695;28;20582;-66
2021/11/30 05:33:03;;;;;;;3.03;1.83;;;2.60;1.00;;;;;;5095613;28;20448;-66
2021/11/30 05:35:30;;;;;;;4.50;2.33;;;2.70;1.00;;;;;;5090792;28;20439;-66
2021/11/30 05:37:57;;;;;;;3.83;2.53;;;2.60;1.00;;;;;;5090756;28;20436;-67
2021/11/30 05:40:24;;;;;;;3.50;2.27;;;2.60;1.00;;;;;;5090721;28;20472;-67
2021/11/30 05:42:51;;;;;;;3.40;2.73;;;2.60;1.00;;;;;;5090372;28;21008;-67
2021/11/30 05:45:18;;;;;;;6.30;2.77;;;2.60;1.00;;;;;;5089858;28;20445;-67
2021/11/30 05:47:47;;;;;;;3.20;2.13;;;2.50;1.00;;;;;;5090465;28;20590;-67
2021/11/30 05:50:14;;;;;;;3.03;2.00;;;2.50;1.00;;;;;;5091121;28;20563;-67
2021/11/30 05:52:41;;;;;;;5.03;3.07;;;2.50;32.90;;;;;;5090620;28;20437;-67
2021/11/30 05:55:09;;;;;;;4.53;2.50;;;2.60;1.00;;;;;;5094467;28;20448;-66
2021/11/30 05:57:37;;;;;;;5.03;3.20;;;2.50;1.00;;;;;;5094552;28;20436;-66
2021/11/30 06:00:05;;;;;;;3.90;2.70;;;2.60;1.00;;;;;;5095015;28;20440;-66
2021/11/30 06:02:39;;;;;;;2.60;2.40;;;2.70;1.00;;;;;;5094725;28;20449;-66
2021/11/30 06:05:09;;;;;;;6.33;2.87;;;2.60;1.00;;;;;;5094618;28;20436;-70
2021/11/30 06:07:36;;;;;;;2.70;2.50;;;2.60;1.00;;;;;;5093089;28;20924;-67
2021/11/30 06:10:03;;;;;;;5.20;2.63;;;2.60;1.00;;;;;;5094494;28;20500;-68
2021/11/30 06:12:30;;;;;;;3.53;2.57;;;2.50;1.00;;;;;;5094604;28;20441;-67
2021/11/30 06:14:57;;;;;;;3.37;2.90;;;2.70;1.00;;;;;;5093528;28;20523;-67
2021/11/30 06:17:23;;;;;;;3.43;3.10;;;2.60;1.00;;;;;;5094149;28;20558;-67
2021/11/30 06:19:50;;;;;;;2.63;2.23;;;2.70;1.00;;;;;;5094132;28;20498;-67
2021/11/30 06:22:19;;;;;;;6.07;3.50;;;2.80;1.00;;;;;;5094449;28;20526;-68
2021/11/30 06:24:45;;;;;;;4.20;2.97;;;2.60;1.00;;;;;;5092309;28;20498;-68
2021/11/30 06:27:12;;;;;;;5.13;3.23;;;2.60;1.00;;;;;;5092564;28;20442;-68
2021/11/30 06:29:39;;;;;;;4.60;2.80;;;2.60;1.00;;;;;;5092773;28;20571;-66
2021/11/30 06:32:07;;;;;;;4.83;2.80;;;2.50;62.10;;;;;;5092629;28;20912;-68
2021/11/30 06:34:34;;;;;;;3.50;3.00;;;2.40;99.90;;;;;;5092462;28;20555;-68
2021/11/30 06:37:00;;;;;;;3.70;3.20;;;2.40;99.90;;;;;;5092086;28;20451;-68
2021/11/30 06:39:29;;;;;;;4.13;3.53;;;2.30;99.90;;;;;;5092294;28;20449;-68
2021/11/30 06:41:55;;;;;;;4.50;3.40;;;2.30;99.90;;;;;;5092191;28;20538;-67
2021/11/30 06:44:23;;;;;;;3.00;2.67;;;2.20;99.90;;;;;;5094249;28;20867;-67
2021/11/30 06:46:50;;;;;;;4.37;3.63;;;2.20;99.90;;;;;;5092555;28;20456;-67
2021/11/30 06:49:17;;;;;;;4.83;2.93;;;2.10;99.90;;;;;;5092442;28;20842;-67
2021/11/30 06:51:44;;;;;;;2.90;2.50;;;2.10;99.90;;;;;;5092898;28;20451;-67
2021/11/30 06:54:11;;;;;;;4.43;3.50;;;2.00;99.90;;;;;;5092239;28;20852;-68
2021/11/30 06:56:40;;;;;;;3.83;3.30;;;2.00;99.90;;;;;;5093148;28;20531;-68
2021/11/30 06:59:07;;;;;;;5.80;3.47;;;1.90;99.90;;;;;;5092435;28;20530;-67
2021/11/30 07:01:35;;;;;;;3.53;3.20;;;2.00;99.90;;;;;;5093926;28;20537;-66
2021/11/30 07:04:03;;;;;;;5.13;3.50;;;1.90;99.90;;;;;;5092413;28;20543;-66
2021/11/30 07:06:36;;;;;;;7.33;3.63;;;1.90;99.90;;;;;;5093406;28;20518;-66
2021/11/30 07:09:15;;;;;;;5.67;3.47;;;2.00;99.90;;;;;;5092160;28;21010;-66
2021/11/30 07:12:05;;;;;;;4.40;2.93;;;2.10;99.90;;;;;;5092907;28;20436;-66
2021/11/30 07:14:32;;;;;;;8.60;3.40;;;2.10;99.90;;;;;;5093493;28;20429;-66
2021/11/30 07:16:59;;;;;;;2.60;1.90;;;2.10;99.90;;;;;;5095101;28;20891;-66
2021/11/30 07:19:28;;;;;;;3.40;2.40;;;2.20;99.90;;;;;;5100667;28;20871;-66
2021/11/30 07:21:55;;;;;;;5.83;3.17;;;2.20;99.90;;;;;;5092804;28;20805;-66
2021/11/30 07:24:22;;;;;;;2.73;1.80;;;2.20;99.90;;;;;;5093294;28;20535;-66
2021/11/30 07:26:50;;;;;;;5.20;2.57;;;2.30;99.90;;;;;;5091254;28;20445;-66
2021/11/30 07:29:17;;;;;;;3.57;2.27;;;2.30;99.90;;;;;;5092890;28;20500;-66
2021/11/30 07:31:45;;;;;;;2.63;2.00;;;2.20;99.90;;;;;;5091835;28;20543;-66
2021/11/30 07:34:12;;;;;;;6.43;2.87;;;2.30;99.90;;;;;;5092866;28;20583;-66
2021/11/30 07:36:39;;;;;;;2.57;2.37;;;2.30;57.50;;;;;;5092529;28;20476;-67
2021/11/30 07:39:05;;;;;;;2.93;2.47;;;2.20;99.90;;;;;;5091455;28;20533;-68
2021/11/30 07:41:35;;;;;;;4.40;2.80;;;2.30;99.90;;;;;;5092197;28;20807;-67
2021/11/30 07:44:04;;;;;;;2.40;2.20;;;2.30;67.70;;;;;;5092219;28;20440;-67
2021/11/30 07:46:31;;;;;;;3.37;2.37;;;2.20;99.10;;;;;;5092135;28;20519;-67
2021/11/30 07:48:58;;;;;;;3.40;2.30;;;2.40;99.90;;;;;;5091375;28;20443;-67
2021/11/30 07:51:26;;;;;;;3.23;2.30;;;2.50;1.00;;;;;;5092040;28;20444;-67
2021/11/30 07:53:53;;;;;;;2.20;1.80;;;2.40;1.00;;;;;;5092071;28;20527;-67
2021/11/30 07:56:20;;;;;;;2.23;2.00;;;2.30;35.00;;;;;;5103252;28;21019;-67
2021/11/30 07:58:46;;;;;;;2.20;2.00;;;2.30;25.10;;;;;;5091391;28;20445;-67
2021/11/30 08:01:16;;;;;;;2.50;2.27;;;2.30;1.00;;;;;;5092214;28;20535;-69
2021/11/30 08:03:44;;;;;;;2.53;1.87;;;2.50;1.00;;;;;;5090850;28;20501;-66
2021/11/30 08:06:11;;;;;;;1.77;1.57;;;2.60;1.00;;;;;;5092136;28;20440;-66
2021/11/30 08:08:38;;;;;;;6.03;1.90;;;2.60;99.90;;;;;;5091933;28;20531;-66
2021/11/30 08:11:06;;;;;;;3.70;2.03;;;2.40;1.00;;;;;;5100876;28;20472;-66
2021/11/30 08:13:33;;;;;;;2.37;1.70;;;2.50;1.00;;;;;;5091345;28;20447;-66
2021/11/30 08:16:00;;;;;;;3.30;1.73;;;2.50;1.00;;;;;;5090997;28;20476;-66
2021/11/30 08:18:28;;;;;;;6.93;1.90;;;2.40;1.00;;;;;;5090794;28;20490;-66
2021/11/30 08:20:56;;;;;;;2.50;1.70;;;2.40;1.00;;;;;;5091513;28;20485;-67
2021/11/30 08:23:23;;;;;;;3.23;1.93;;;2.30;1.00;;;;;;5091506;28;20441;-67
2021/11/30 08:25:50;;;;;;;2.83;1.63;;;2.40;1.00;;;;;;5091774;28;20443;-67
2021/11/30 08:28:17;;;;;;;2.27;1.90;;;2.40;1.00;;;;;;5091486;28;20962;-67
2021/11/30 08:30:45;;;;;;;2.07;1.60;;;2.40;1.00;;;;;;5090248;28;20472;-65
2021/11/30 08:33:12;;;;;;;1.80;1.60;;;2.40;1.00;;;;;;5091009;28;20551;-67
2021/11/30 08:35:41;;;;;;;2.90;1.83;;;2.40;1.00;;;;;;5091089;28;21070;-67
2021/11/30 08:38:08;;;;;;;3.40;2.27;;;2.50;1.00;;;;;;5090069;28;20445;-67
2021/11/30 08:40:35;;;;;;;3.70;1.77;;;2.60;99.90;;;;;;5091716;28;20498;-67
2021/11/30 08:43:03;;;;;;;3.23;1.77;;;2.70;99.90;;;;;;5098665;28;20557;-67
2021/11/30 08:45:30;;;;;;;2.47;2.00;;;2.70;93.70;;;;;;5089983;28;20805;-68
2021/11/30 08:47:57;;;;;;;2.57;1.80;;;2.80;99.90;;;;;;5088451;28;20445;-67
2021/11/30 08:50:25;;;;;;;2.30;1.77;;;2.80;1.00;;;;;;5089869;28;20468;-67
2021/11/30 08:52:53;;;;;;;3.97;2.47;;;2.90;1.00;;;;;;5090814;28;20475;-68
2021/11/30 08:55:20;;;;;;;2.43;1.70;;;2.90;1.00;;;;;;5092455;28;20522;-67
2021/11/30 08:57:47;;;;;;;2.27;1.80;;;2.90;1.00;;;;;;5090682;28;20951;-69
2021/11/30 09:00:17;;;;;;;1.20;1.10;;;2.90;1.00;;;;;;5090947;28;20516;-68
2021/11/30 09:02:45;;;;;;;1.87;1.67;;;2.90;1.00;;;;;;5080977;28;20455;-68
2021/11/30 09:05:12;;;;;;;1.90;1.37;;;3.00;1.00;;;;;;5091371;28;20436;-71
2021/11/30 09:07:39;;;;;;;4.20;1.50;;;3.00;1.00;;;;;;5090777;28;20472;-70
2021/11/30 09:10:09;;;;;;;3.17;1.80;;;3.10;1.00;;;;;;5090380;28;21047;-69
2021/11/30 09:12:36;;;;;;;2.30;1.33;;;3.10;99.90;;;;;;5092056;28;20518;-68
2021/11/30 09:15:06;;;;;;;1.60;1.30;;;3.10;99.90;;;;;;5089684;28;20428;-69
2021/11/30 09:17:36;;;;;;;2.80;1.93;;;3.20;99.90;;;;;;5091224;28;20946;-69
2021/11/30 09:20:04;;;;;;;1.30;1.20;;;3.20;77.90;;;;;;5091273;28;20919;-68
2021/11/30 09:22:31;;;;;;;2.93;1.90;;;3.10;1.00;;;;;;5090894;28;20440;-68
2021/11/30 09:24:58;;;;;;;1.93;1.07;;;3.10;1.00;;;;;;5088912;28;20528;-69
2021/11/30 09:27:27;;;;;;;2.13;1.70;;;3.20;1.00;;;;;;5089265;28;20443;-69
2021/11/30 09:29:55;;;;;;;1.57;1.10;;;3.20;1.00;;;;;;5091752;28;20478;-69
2021/11/30 09:32:26;;;;;;;2.30;1.37;;;3.20;99.90;;;;;;5090202;28;20499;-68
2021/11/30 09:34:53;;;;;;;1.70;1.03;;;3.30;1.00;;;;;;5093450;28;20460;-69
2021/11/30 09:37:20;;;;;;;3.90;1.23;;;3.30;99.90;;;;;;5093083;28;20527;-68
2021/11/30 09:39:47;;;;;;;3.53;1.50;;;3.40;99.90;;;;;;5093709;28;20540;-67
2021/11/30 09:42:16;;;;;;;1.37;1.27;;;3.40;1.00;;;;;;5094433;28;20472;-69
2021/11/30 09:44:45;;;;;;;1.77;1.13;;;3.30;99.90;;;;;;5094875;28;21009;-67
2021/11/30 09:47:13;;;;;;;1.80;1.30;;;3.40;99.90;;;;;;5098941;28;20492;-68
2021/11/30 09:49:40;;;;;;;1.30;0.97;;;3.40;99.90;;;;;;5093764;28;20432;-67
2021/11/30 09:52:08;;;;;;;1.27;1.00;;;3.40;39.30;;;;;;5094400;28;20828;-67
2021/11/30 09:54:35;;;;;;;1.10;1.00;;;3.40;99.90;;;;;;5094921;28;20515;-66
2021/11/30 09:57:03;;;;;;;1.97;1.27;;;3.40;31.90;;;;;;5094388;28;20535;-67
2021/11/30 09:59:30;;;;;;;1.97;1.30;;;3.40;99.90;;;;;;5098830;28;20930;-67
2021/11/30 10:01:58;;;;;;;1.50;1.00;;;3.40;1.00;;;;;;5110616;28;20928;-71
2021/11/30 10:04:25;;;;;;;3.23;1.70;;;3.50;99.90;;;;;;5094926;28;20451;-68
2021/11/30 10:06:53;;;;;;;6.90;1.60;;;3.40;99.90;;;;;;5093426;28;20480;-67
2021/11/30 10:09:23;;;;;;;1.90;1.53;;;3.50;1.00;;;;;;5093802;28;20928;-67
2021/11/30 10:11:58;;;;;;;1.60;1.20;;;3.50;1.00;;;;;;5093607;28;21707;-67
2021/11/30 10:14:33;;;;;;;6.57;1.47;;;3.50;1.00;;;;;;5094325;28;20447;-67
2021/11/30 10:17:16;;;;;;;1.17;0.93;;;3.50;1.00;;;;;;5093478;28;20904;-67
2021/11/30 10:19:52;;;;;;;1.20;0.80;;;3.50;1.00;;;;;;5094393;28;20432;-67
2021/11/30 10:22:35;;;;;;;2.03;1.90;;;3.50;99.90;;;;;;5093107;28;20519;-67
2021/11/30 10:25:21;;;;;;;2.00;1.47;;;3.50;1.00;;;;;;5093198;28;20432;-67
2021/11/30 10:27:51;;;;;;;2.10;1.30;;;3.60;99.90;;;;;;5091564;28;20516;-66
2021/11/30 10:30:21;;;;;;;1.00;0.83;;;3.50;99.90;;;;;;5094129;28;20972;-67
2021/11/30 10:32:51;;;;;;;1.50;1.07;;;3.70;99.90;;;;;;5092692;28;20445;-67
2021/11/30 10:35:20;;;;;;;1.57;0.97;;;3.60;99.90;;;;;;5093919;28;20991;-67
2021/11/30 10:37:48;;;;;;;1.20;1.10;;;3.60;1.00;;;;;;5093113;28;20449;-67
2021/11/30 10:40:17;;;;;;;1.47;1.07;;;3.60;1.00;;;;;;5092649;28;20448;-67
2021/11/30 10:42:51;;;;;;;1.47;1.00;;;3.60;99.90;;;;;;5093229;28;20556;-68
2021/11/30 10:45:31;;;;;;;1.00;0.90;;;3.50;99.90;;;;;;5092831;28;20490;-68
2021/11/30 10:48:06;;;;;;;1.37;1.03;;;3.40;99.90;;;;;;5089958;28;20468;-67
2021/11/30 10:50:36;;;;;;;1.40;0.90;;;3.40;1.00;;;;;;5093655;28;20466;-68
2021/11/30 10:53:13;;;;;;;1.33;0.77;;;3.40;1.00;;;;;;5091876;28;20453;-66
2021/11/30 10:55:44;;;;;;;1.10;0.80;;;3.30;1.00;;;;;;5091849;28;20491;-67
2021/11/30 10:58:11;;;;;;;2.03;1.20;;;3.30;1.00;;;;;;5086833;28;20437;-68
2021/11/30 11:00:38;;;;;;;1.77;0.90;;;3.30;1.00;;;;;;5092140;28;20444;-68
2021/11/30 11:03:10;;;;;;;0.87;0.50;;;3.30;1.00;;;;;;5092543;28;20878;-67
2021/11/30 11:05:40;;;;;;;1.30;0.80;;;3.40;1.00;;;;;;5092834;28;20540;-68
2021/11/30 11:08:10;;;;;;;1.30;0.80;;;3.30;1.00;;;;;;5089791;28;20868;-68
2021/11/30 11:10:39;;;;;;;1.23;1.13;;;3.40;1.00;;;;;;5093040;28;20476;-67
2021/11/30 11:13:24;;;;;;;2.73;0.97;;;3.50;1.00;;;;;;5092235;28;20444;-67
2021/11/30 11:15:53;;;;;;;1.00;0.80;;;3.50;1.00;;;;;;5084305;28;20430;-65
2021/11/30 11:18:27;;;;;;;0.90;0.77;;;3.60;1.00;;;;;;5092992;28;20547;-68
2021/11/30 11:21:10;;;;;;;1.33;0.80;;;3.60;1.00;;;;;;5091716;28;20460;-68
2021/11/30 11:23:41;;;;;;;0.80;0.60;;;3.70;99.90;;;;;;5092233;28;20515;-68
2021/11/30 11:26:21;;;;;;;1.60;0.77;;;3.70;99.90;;;;;;5092537;28;20547;-68
2021/11/30 11:28:49;;;;;;;1.33;0.80;;;3.70;99.90;;;;;;5091529;28;20470;-68
2021/11/30 11:31:16;;;;;;;1.47;1.00;;;3.70;99.90;;;;;;5092006;28;20478;-68
2021/11/30 11:33:45;;;;;;;1.83;0.60;;;3.70;99.90;;;;;;5092057;28;20567;-68
2021/11/30 11:36:12;;;;;;;1.77;0.70;;;3.70;99.90;;;;;;5091455;28;20687;-68
2021/11/30 11:38:39;;;;;;;2.60;0.90;;;3.70;1.00;;;;;;5091620;28;20477;-68
2021/11/30 11:41:08;;;;;;;1.10;1.00;;;3.80;99.90;;;;;;5091630;28;20450;-69
2021/11/30 11:43:38;;;;;;;0.90;0.70;;;3.80;99.90;;;;;;5092257;28;20443;-69
2021/11/30 11:46:09;;;;;;;1.03;0.70;;;3.70;99.90;;;;;;5091236;28;20441;-68
2021/11/30 11:48:36;;;;;;;1.20;1.10;;;3.70;99.90;;;;;;5091890;28;20940;-68
2021/11/30 11:51:07;;;;;;;1.00;0.70;;;3.80;1.00;;;;;;5090623;28;20525;-68
2021/11/30 11:53:36;;;;;;;1.73;0.80;;;3.80;99.90;;;;;;5092057;28;20433;-68
2021/11/30 11:56:15;;;;;;;1.00;0.70;;;3.80;99.90;;;;;;5091280;28;20524;-68
2021/11/30 11:58:45;;;;;;;2.27;0.93;;;3.80;1.00;;;;;;5092301;28;20431;-68
2021/11/30 12:01:18;;;;;;;1.20;0.87;;;3.80;99.90;;;;;;5092004;28;20502;-67
2021/11/30 12:03:56;;;;;;;3.20;1.00;;;3.80;1.00;;;;;;5086907;28;20843;-67
2021/11/30 12:06:27;;;;;;;3.90;2.03;;;3.90;99.90;;;;;;5090707;28;20464;-68
2021/11/30 12:09:26;;;;;;;1.37;1.00;;;3.90;1.00;;;;;;5089326;28;20452;-68
2021/11/30 12:11:55;;;;;;;0.93;0.80;;;3.90;1.00;;;;;;5088496;28;20544;-68
2021/11/30 12:14:29;;;;;;;1.07;0.93;;;3.90;1.00;;;;;;5090712;28;20519;-68
2021/11/30 12:17:19;;;;;;;0.93;0.70;;;3.90;1.00;;;;;;5086579;28;20773;-68
2021/11/30 12:19:49;;;;;;;1.23;0.80;;;4.00;1.00;;;;;;5083943;28;20535;-66
2021/11/30 12:22:46;;;;;;;1.20;1.03;;;4.00;1.00;;;;;;5091117;28;20499;-67
2021/11/30 12:25:42;;;;;;;3.17;0.90;;;4.00;1.00;;;;;;5086830;28;20428;-67
2021/11/30 12:28:10;;;;;;;2.13;1.40;;;3.90;1.00;;;;;;5089096;28;20460;-67
2021/11/30 12:30:44;;;;;;;2.93;1.13;;;3.90;1.00;;;;;;5090776;28;20446;-66
2021/11/30 12:33:22;;;;;;;1.13;0.97;;;3.90;1.00;;;;;;5086956;28;20444;-68
2021/11/30 12:35:57;;;;;;;1.07;0.80;;;3.90;98.40;;;;;;5089827;28;20443;-68
2021/11/30 12:38:33;;;;;;;2.60;0.80;;;3.90;43.70;;;;;;5089445;28;20444;-68
2021/11/30 12:41:23;;;;;;;3.63;1.20;;;3.80;99.90;;;;;;5089476;28;20501;-67
2021/11/30 12:43:50;;;;;;;2.03;0.70;;;3.80;99.90;;;;;;5089844;28;20436;-67
2021/11/30 12:46:30;;;;;;;5.13;0.90;;;3.80;99.90;;;;;;5090200;28;21688;-67
2021/11/30 12:48:57;;;;;;;1.40;1.00;;;3.80;99.90;;;;;;5090453;28;20843;-65
2021/11/30 12:51:27;;;;;;;1.10;0.83;;;3.80;99.90;;;;;;5090946;28;20581;-66
2021/11/30 12:53:57;;;;;;;2.10;1.33;;;3.80;99.90;;;;;;5091166;28;20524;-67
2021/11/30 12:56:47;;;;;;;1.10;0.80;;;3.80;99.90;;;;;;5093122;28;20512;-68
2021/11/30 12:59:34;;;;;;;0.67;0.67;;;3.80;99.90;;;;;;5088136;28;20532;-66
2021/11/30 13:02:16;;;;;;;1.20;0.70;;;3.70;99.90;;;;;;5091719;28;20456;-67
2021/11/30 13:04:43;;;;;;;1.47;0.90;;;3.70;99.90;;;;;;5097348;28;20508;-68
2021/11/30 13:07:12;;;;;;;2.20;0.70;;;3.70;99.90;;;;;;5090506;28;20448;-68
2021/11/30 13:09:42;;;;;;;3.17;0.90;;;3.70;99.90;;;;;;5090910;28;20449;-68
2021/11/30 13:12:12;;;;;;;1.00;0.90;;;3.70;99.90;;;;;;5089862;28;20461;-67
2021/11/30 13:14:40;;;;;;;2.10;1.20;;;3.60;99.90;;;;;;5091248;28;20443;-67